createdAt,value
2022-09-06T00:00:41.263Z,12.65
2022-09-06T00:05:45.055Z,12.56
2022-09-06T00:10:47.798Z,12.29
2022-09-06T00:15:50.270Z,12.31
2022-09-06T00:20:52.678Z,12.18
2022-09-06T00:26:03.092Z,12.08
2022-09-06T00:31:23.457Z,12.18
2022-09-06T00:36:25.967Z,12.12
2022-09-06T00:41:28.574Z,12.06
2022-09-06T00:46:31.957Z,12.14
2022-09-06T00:51:35.337Z,12.18
2022-09-06T00:56:40.662Z,12.20
2022-09-06T01:01:43.780Z,12.17
2022-09-06T01:07:20.409Z,12.09
2022-09-06T01:13:03.786Z,12.09
2022-09-06T01:18:17.971Z,12.09
2022-09-06T01:23:38.436Z,11.85
2022-09-06T01:28:43.802Z,11.89
2022-09-06T01:34:20.853Z,11.81
2022-09-06T01:39:34.039Z,11.88
2022-09-06T01:44:37.182Z,11.83
2022-09-06T01:49:57.070Z,11.89
2022-09-06T01:55:20.516Z,11.84
2022-09-06T02:00:23.069Z,11.83
2022-09-06T02:05:47.338Z,11.78
2022-09-06T02:10:57.856Z,11.79
2022-09-06T02:16:05.777Z,11.78
2022-09-06T02:21:09.829Z,11.79
2022-09-06T02:26:14.639Z,11.72
2022-09-06T02:31:43.092Z,11.63
2022-09-06T02:36:46.026Z,11.62
2022-09-06T02:41:49.016Z,11.52
2022-09-06T02:46:55.078Z,11.40
2022-09-06T02:51:59.698Z,11.45
2022-09-06T02:57:02.314Z,11.43
2022-09-06T03:02:04.862Z,11.31
2022-09-06T03:07:07.623Z,11.28
2022-09-06T03:12:09.988Z,11.21
2022-09-06T03:17:12.405Z,11.15
2022-09-06T03:22:14.795Z,11.09
2022-09-06T03:27:17.142Z,11.04
2022-09-06T03:32:19.735Z,10.90
2022-09-06T03:37:22.249Z,11.00
2022-09-06T03:42:26.753Z,10.99
2022-09-06T03:47:29.277Z,11.09
2022-09-06T03:52:31.737Z,10.96
2022-09-06T03:57:34.521Z,11.02
2022-09-06T04:02:37.057Z,10.93
2022-09-06T04:07:39.955Z,10.97
2022-09-06T04:12:42.343Z,10.92
2022-09-06T04:17:46.713Z,10.89
2022-09-06T04:22:49.311Z,10.79
2022-09-06T04:27:51.736Z,10.79
2022-09-06T04:32:54.092Z,10.81
2022-09-06T04:37:56.715Z,10.74
2022-09-06T04:42:59.274Z,10.87
2022-09-06T04:48:01.699Z,10.97
2022-09-06T04:53:04.908Z,11.14
2022-09-06T04:58:07.317Z,11.28
2022-09-06T05:03:10.055Z,11.43
2022-09-06T05:08:12.568Z,11.98
2022-09-06T05:13:15.076Z,13.20
2022-09-06T05:18:17.561Z,13.81
2022-09-06T05:23:20.953Z,14.27
2022-09-06T05:28:23.529Z,14.56
2022-09-06T05:33:26.067Z,14.83
2022-09-06T05:38:29.838Z,15.08
2022-09-06T05:43:32.226Z,15.38
2022-09-06T05:48:37.173Z,15.68
2022-09-06T05:53:39.849Z,15.94
2022-09-06T05:58:42.336Z,15.97
2022-09-06T06:03:51.785Z,16.11
2022-09-06T06:08:54.353Z,16.21
2022-09-06T06:13:56.803Z,16.23
2022-09-06T06:18:59.279Z,16.41
2022-09-06T06:24:04.226Z,16.57
2022-09-06T06:29:09.773Z,16.50
2022-09-06T06:34:12.339Z,16.41
2022-09-06T06:39:14.829Z,16.42
2022-09-06T06:44:17.263Z,16.23
2022-09-06T06:49:19.715Z,16.26
2022-09-06T06:54:22.574Z,16.45
2022-09-06T06:59:25.105Z,16.34
2022-09-06T07:04:27.555Z,16.66
2022-09-06T07:14:52.473Z,16.90
2022-09-06T07:25:21.409Z,17.04
2022-09-06T07:30:24.112Z,17.22
2022-09-06T07:35:27.861Z,17.25
2022-09-06T07:40:31.489Z,17.33
2022-09-06T07:45:36.256Z,17.46
2022-09-06T07:55:48.202Z,17.65
2022-09-06T08:00:50.612Z,17.87
2022-09-06T08:06:08.482Z,18.11
2022-09-06T08:11:11.413Z,18.25
2022-09-06T08:16:14.225Z,18.33
2022-09-06T08:21:17.157Z,18.47
2022-09-06T08:26:21.129Z,18.64
2022-09-06T08:31:23.817Z,18.73
2022-09-06T08:36:29.892Z,18.94
2022-09-06T08:41:41.058Z,19.28
2022-09-06T08:46:49.253Z,19.33
2022-09-06T08:52:17.930Z,19.40
2022-09-06T08:57:46.248Z,19.29
2022-09-06T09:02:57.772Z,19.32
2022-09-06T09:08:24.950Z,19.70
2022-09-06T09:13:36.431Z,19.57
2022-09-06T09:18:40.494Z,19.71
2022-09-06T09:23:43.256Z,19.93
2022-09-06T09:29:11.283Z,19.90
2022-09-06T09:34:15.567Z,19.95
2022-09-06T09:39:18.020Z,20.03
2022-09-06T09:44:21.795Z,20.37
2022-09-06T09:49:25.127Z,20.12
2022-09-06T09:54:32.110Z,20.20
2022-09-06T09:59:37.395Z,20.58
2022-09-06T10:04:46.916Z,20.62
2022-09-06T10:09:51.949Z,20.72
2022-09-06T10:14:54.505Z,20.73
2022-09-06T10:19:57.762Z,20.48
2022-09-06T10:25:25.070Z,20.72
2022-09-06T10:30:30.495Z,20.22
2022-09-06T10:35:38.359Z,20.20
2022-09-06T10:41:05.871Z,20.56
2022-09-06T10:46:18.848Z,20.83
2022-09-06T10:51:41.074Z,20.95
2022-09-06T10:56:49.906Z,20.91
2022-09-06T11:02:03.833Z,20.96
2022-09-06T11:07:21.476Z,21.07
2022-09-06T11:12:44.125Z,21.10
2022-09-06T11:17:58.534Z,21.34
2022-09-06T11:23:12.960Z,21.29
2022-09-06T11:28:19.389Z,21.47
2022-09-06T11:33:27.064Z,21.48
2022-09-06T11:38:29.582Z,21.44
2022-09-06T11:43:49.508Z,21.13
2022-09-06T11:49:16.216Z,22.05
2022-09-06T11:54:18.843Z,22.42
2022-09-06T11:59:41.363Z,22.58
2022-09-06T12:05:04.021Z,22.69
2022-09-06T12:10:42.124Z,22.47
2022-09-06T12:15:54.897Z,22.52
2022-09-06T12:20:57.602Z,21.98
2022-09-06T12:26:00.301Z,21.46
2022-09-06T12:31:13.162Z,21.59
2022-09-06T12:36:25.049Z,21.46
2022-09-06T12:41:30.477Z,21.28
2022-09-06T12:46:33.282Z,20.90
2022-09-06T12:51:37.566Z,20.88
2022-09-06T12:56:40.136Z,20.92
2022-09-06T13:01:47.120Z,21.38
2022-09-06T13:06:49.777Z,21.91
2022-09-06T13:11:53.121Z,21.82
2022-09-06T13:16:57.441Z,22.08
2022-09-06T13:22:00.754Z,22.05
2022-09-06T13:27:25.193Z,21.95
2022-09-06T13:32:28.579Z,21.76
2022-09-06T13:37:34.058Z,21.94
2022-09-06T13:42:37.391Z,22.37
2022-09-06T13:47:39.774Z,22.51
2022-09-06T13:52:42.234Z,22.78
2022-09-06T13:57:44.679Z,22.80
2022-09-06T14:02:48.987Z,22.77
2022-09-06T14:07:51.387Z,23.10
2022-09-06T14:12:54.730Z,22.93
2022-09-06T14:17:57.604Z,22.27
2022-09-06T14:23:00.184Z,21.71
2022-09-06T14:28:04.349Z,21.47
2022-09-06T14:33:07.702Z,21.49
2022-09-06T14:38:10.954Z,21.02
2022-09-06T14:43:13.484Z,20.79
2022-09-06T14:48:15.984Z,20.91
2022-09-06T14:53:40.673Z,21.51
2022-09-06T14:58:41.846Z,21.98
2022-09-06T15:03:51.570Z,22.03
2022-09-06T15:08:58.570Z,22.41
2022-09-06T15:14:08.073Z,22.32
2022-09-06T15:19:11.233Z,22.38
2022-09-06T15:24:14.495Z,22.22
2022-09-06T15:29:17.112Z,21.92
2022-09-06T15:34:21.348Z,22.15
2022-09-06T15:39:23.996Z,22.14
2022-09-06T15:44:26.724Z,21.93
2022-09-06T15:49:32.931Z,21.93
2022-09-06T15:54:54.474Z,21.96
2022-09-06T15:59:56.922Z,22.02
2022-09-06T16:04:59.636Z,21.71
2022-09-06T16:10:02.174Z,21.70
2022-09-06T16:15:05.313Z,21.37
2022-09-06T16:20:08.670Z,21.42
2022-09-06T16:25:11.100Z,21.15
2022-09-06T16:30:13.745Z,21.03
2022-09-06T16:35:16.363Z,20.78
2022-09-06T16:40:18.768Z,20.67
2022-09-06T16:45:21.562Z,20.62
2022-09-06T16:50:24.458Z,20.31
2022-09-06T16:55:27.106Z,19.69
2022-09-06T17:00:29.810Z,19.27
2022-09-06T17:05:34.978Z,19.07
2022-09-06T17:10:40.193Z,18.67
2022-09-06T17:16:01.429Z,17.98
2022-09-06T17:21:07.612Z,17.51
2022-09-06T17:26:10.046Z,17.61
2022-09-06T17:31:13.102Z,16.79
2022-09-06T17:36:18.231Z,16.26
2022-09-06T17:41:26.713Z,16.09
2022-09-06T17:46:29.380Z,15.96
2022-09-06T17:51:32.327Z,15.72
2022-09-06T17:56:36.543Z,15.41
2022-09-06T18:01:41.236Z,15.23
2022-09-06T18:06:46.468Z,15.08
2022-09-06T18:11:49.318Z,14.78
2022-09-06T18:16:52.806Z,14.53
2022-09-06T18:21:57.400Z,14.51
2022-09-06T18:27:03.077Z,14.39
2022-09-06T18:32:07.659Z,14.33
2022-09-06T18:37:10.517Z,14.15
2022-09-06T18:42:13.298Z,14.19
2022-09-06T18:47:15.648Z,14.99
2022-09-06T18:52:20.213Z,15.29
2022-09-06T18:57:22.716Z,15.50
2022-09-06T19:02:26.420Z,15.56
2022-09-06T19:07:29.883Z,15.61
2022-09-06T19:12:33.391Z,15.65
2022-09-06T19:17:35.887Z,15.54
2022-09-06T19:22:38.697Z,15.47
2022-09-06T19:27:43.640Z,15.34
2022-09-06T19:32:48.093Z,15.32
2022-09-06T19:37:50.425Z,15.27
2022-09-06T19:42:53.525Z,15.17
2022-09-06T19:47:56.480Z,15.11
2022-09-06T19:52:58.941Z,15.06
2022-09-06T19:58:03.558Z,14.99
2022-09-06T20:03:05.870Z,14.98
2022-09-06T20:08:08.236Z,14.93
2022-09-06T20:13:10.605Z,14.81
2022-09-06T20:18:13.344Z,14.78
2022-09-06T20:23:16.158Z,14.71
2022-09-06T20:28:18.637Z,14.62
2022-09-06T20:33:21.182Z,14.63
2022-09-06T20:38:24.644Z,14.54
2022-09-06T20:43:27.248Z,14.44
2022-09-06T20:48:32.811Z,14.35
2022-09-06T20:53:37.977Z,14.31
2022-09-06T20:58:41.032Z,14.32
2022-09-06T21:03:43.799Z,14.19
2022-09-06T21:08:47.226Z,14.21
2022-09-06T21:13:51.379Z,14.12
2022-09-06T21:18:55.578Z,13.99
2022-09-06T21:23:58.465Z,13.97
2022-09-06T21:29:01.016Z,13.92
2022-09-06T21:34:06.875Z,13.84
2022-09-06T21:39:10.882Z,13.83
2022-09-06T21:44:14.195Z,13.76
2022-09-06T21:49:16.672Z,13.68
2022-09-06T21:54:19.107Z,13.67
2022-09-06T21:59:21.733Z,13.67
2022-09-06T22:04:24.324Z,13.64
2022-09-06T22:09:26.961Z,13.57
2022-09-06T22:14:29.471Z,13.51
2022-09-06T22:19:31.916Z,13.44
2022-09-06T22:24:34.897Z,13.33
2022-09-06T22:29:37.382Z,13.16
2022-09-06T22:34:40.603Z,13.08
2022-09-06T22:39:43.928Z,12.84
2022-09-06T22:44:46.621Z,12.67
2022-09-06T22:49:49.142Z,12.57
2022-09-06T22:54:51.721Z,12.47
2022-09-06T22:59:54.142Z,12.37
2022-09-06T23:04:57.773Z,12.32
2022-09-06T23:10:00.327Z,12.27
2022-09-06T23:15:02.763Z,12.05
2022-09-06T23:20:05.433Z,12.12
2022-09-06T23:25:09.011Z,12.04
2022-09-06T23:30:11.789Z,12.00
2022-09-06T23:35:14.321Z,12.02
2022-09-06T23:40:17.147Z,11.89
2022-09-06T23:45:19.775Z,11.86
2022-09-06T23:50:22.150Z,11.75
2022-09-06T23:55:24.720Z,11.75
